Terminal Aerodrome Forecast
Issued by NWS Grand Forks, ND

Home | Current Version | Previous Version | Text Only | Print | Product List | Glossary Off
Versions: 1 2 3 4 5 6 7 8 9 10 11 12 13 14 15 16 17 18 19 20 21

000
FTUS43 KFGF 231947
TAFFAR
TAF
KFAR 231947Z 2318/2418 27012KT P6SM SCT200
     FM240200 27004KT P6SM FEW250
     FM240800 17004KT P6SM FEW250
     FM241700 16008KT P6SM FEW250=

USA.gov is the U.S. government's official web portal to all federal, state and local government web resources and services.